Time;durP1;ratioP1;P1;durP2;ratioP2;P2;SDS_P1;SDS_P2;PMS_P1;PMS_P2;Temp;Humidity;BMP_temperature;BMP_pressure;BME280_temperature;BME280_humidity;BME280_pressure;Samples;Min_cycle;Max_cycle;Signal;HPM_P1;HPM_P2
2023/01/03 00:01:50;;;;;;;36.20;18.00;;;-0.50;99.90;;;;;;4783399;29;20486;-70
2023/01/03 00:04:18;;;;;;;35.60;18.05;;;-0.50;99.90;;;;;;4784885;29;20055;-71
2023/01/03 00:06:47;;;;;;;26.98;14.93;;;-0.40;99.90;;;;;;4786102;29;20421;-70
2023/01/03 00:09:19;;;;;;;30.92;15.95;;;-0.40;99.90;;;;;;4785235;29;20148;-71
2023/01/03 00:14:37;;;;;;;27.17;14.27;;;-0.50;99.90;;;;;;4784787;29;20066;-71
2023/01/03 00:17:06;;;;;;;23.27;12.85;;;-0.50;99.90;;;;;;4785903;29;20112;-71
2023/01/03 00:19:36;;;;;;;18.25;9.77;;;-0.40;99.90;;;;;;4781181;29;20108;-68
2023/01/03 00:22:04;;;;;;;17.55;8.88;;;-0.40;99.90;;;;;;4784826;29;20504;-70
2023/01/03 00:24:32;;;;;;;19.60;9.85;;;-0.50;99.90;;;;;;4784023;29;20062;-70
2023/01/03 00:27:01;;;;;;;16.15;9.30;;;-0.50;99.90;;;;;;4785162;29;20059;-71
2023/01/03 00:29:29;;;;;;;18.10;9.93;;;-0.50;99.90;;;;;;4782885;29;20587;-70
2023/01/03 00:31:57;;;;;;;16.00;8.95;;;-0.50;99.90;;;;;;4784689;29;20442;-70
2023/01/03 00:34:25;;;;;;;17.08;9.60;;;-0.50;99.90;;;;;;4782988;29;20138;-70
2023/01/03 00:36:52;;;;;;;18.85;10.07;;;-0.50;99.90;;;;;;4785572;29;20062;-70
2023/01/03 00:39:20;;;;;;;18.30;10.20;;;-0.50;99.90;;;;;;4783282;29;20082;-70
2023/01/03 00:41:48;;;;;;;15.15;9.00;;;-0.50;99.90;;;;;;4784830;29;20098;-70
2023/01/03 00:44:17;;;;;;;21.35;10.38;;;-0.50;99.90;;;;;;4784179;29;20058;-70
2023/01/03 00:46:44;;;;;;;14.63;8.80;;;-0.50;99.90;;;;;;4783422;29;20417;-70
2023/01/03 00:49:12;;;;;;;22.55;10.13;;;-0.50;99.90;;;;;;4784010;29;20213;-71
2023/01/03 00:51:42;;;;;;;16.92;9.63;;;-0.50;99.90;;;;;;4783250;29;20059;-71
2023/01/03 00:54:11;;;;;;;16.73;9.38;;;-0.50;99.90;;;;;;4782941;29;20051;-70
2023/01/03 00:56:42;;;;;;;18.02;9.85;;;-0.50;99.90;;;;;;4794603;29;20150;-70
2023/01/03 00:59:10;;;;;;;14.50;8.05;;;-0.60;99.90;;;;;;4783868;29;20059;-72
2023/01/03 01:01:42;;;;;;;14.52;8.15;;;-0.60;99.90;;;;;;4782738;29;20067;-70
2023/01/03 01:04:14;;;;;;;11.70;8.20;;;-0.50;99.90;;;;;;4783582;29;20146;-71
2023/01/03 01:06:44;;;;;;;15.40;8.13;;;-0.60;99.90;;;;;;4784145;29;20316;-72
2023/01/03 01:09:17;;;;;;;14.38;8.77;;;-0.60;99.90;;;;;;4784698;29;20088;-70
2023/01/03 01:11:45;;;;;;;13.18;7.45;;;-0.60;99.90;;;;;;4766946;30;20051;-71
2023/01/03 01:14:22;;;;;;;12.75;8.00;;;-0.60;99.90;;;;;;4784527;29;20062;-70
2023/01/03 01:16:54;;;;;;;12.43;7.30;;;-0.60;99.90;;;;;;4794292;29;20060;-71
2023/01/03 01:19:25;;;;;;;15.68;8.20;;;-0.60;99.90;;;;;;4782832;29;20568;-70
2023/01/03 01:21:52;;;;;;;13.48;7.93;;;-0.60;99.90;;;;;;4781820;29;20054;-71
2023/01/03 01:24:20;;;;;;;14.10;7.72;;;-0.60;99.90;;;;;;4783741;29;20149;-71
2023/01/03 01:26:48;;;;;;;12.00;6.93;;;-0.60;99.90;;;;;;4783781;29;20154;-71
2023/01/03 01:29:16;;;;;;;12.65;7.93;;;-0.60;99.90;;;;;;4781399;29;20074;-70
2023/01/03 01:31:44;;;;;;;14.02;7.50;;;-0.60;99.90;;;;;;4785425;29;20063;-71
2023/01/03 01:34:14;;;;;;;13.88;8.15;;;-0.70;99.90;;;;;;4780005;29;20058;-70
2023/01/03 01:36:44;;;;;;;16.08;7.85;;;-0.60;99.90;;;;;;4781400;30;20062;-71
2023/01/03 01:39:16;;;;;;;10.63;7.18;;;-0.60;99.90;;;;;;4781060;29;20067;-71
2023/01/03 01:44:51;;;;;;;13.52;7.00;;;-0.60;99.90;;;;;;4779296;30;20056;-69
2023/01/03 01:47:30;;;;;;;10.68;6.72;;;-0.60;99.90;;;;;;4782447;29;20096;-70
2023/01/03 01:50:20;;;;;;;11.18;6.65;;;-0.60;99.90;;;;;;4784196;29;20059;-70
2023/01/03 01:52:54;;;;;;;13.65;7.43;;;-0.60;99.90;;;;;;4769200;29;20489;-70
2023/01/03 01:55:27;;;;;;;13.63;6.90;;;-0.60;99.90;;;;;;4797595;29;20531;-70
2023/01/03 01:57:55;;;;;;;11.18;6.85;;;-0.60;99.90;;;;;;4781648;29;20100;-70
2023/01/03 02:00:22;;;;;;;12.50;7.30;;;-0.60;99.90;;;;;;4783665;29;20398;-71
2023/01/03 02:02:53;;;;;;;14.95;6.95;;;-0.60;99.90;;;;;;4782238;29;20445;-71
2023/01/03 02:05:23;;;;;;;9.45;6.72;;;-0.60;99.90;;;;;;4784665;29;20055;-70
2023/01/03 02:07:52;;;;;;;17.92;5.88;;;-0.60;99.90;;;;;;4784631;29;20063;-71
2023/01/03 02:10:41;;;;;;;9.00;6.53;;;-0.60;99.90;;;;;;4788336;29;20079;-70
2023/01/03 02:13:19;;;;;;;9.15;6.18;;;-0.70;99.90;;;;;;4787984;29;20051;-70
2023/01/03 02:16:12;;;;;;;7.93;5.90;;;-0.70;99.90;;;;;;4783799;30;20116;-70
2023/01/03 02:18:54;;;;;;;10.02;6.13;;;-0.70;99.90;;;;;;4787103;29;20062;-70
2023/01/03 02:21:57;;;;;;;6.28;5.68;;;-0.70;99.90;;;;;;4782390;30;20071;-70
2023/01/03 02:25:33;;;;;;;9.25;6.05;;;-0.60;99.90;;;;;;4784504;29;20105;-70
2023/01/03 02:28:46;;;;;;;12.10;5.82;;;-0.70;99.90;;;;;;4751051;30;20052;-71
2023/01/03 02:31:23;;;;;;;7.03;4.88;;;-0.70;99.90;;;;;;4747206;30;20063;-71
2023/01/03 02:34:00;;;;;;;10.63;5.97;;;-0.70;99.90;;;;;;4780235;29;20055;-71
2023/01/03 02:36:35;;;;;;;7.38;5.03;;;-0.70;99.90;;;;;;4786114;29;20051;-71
2023/01/03 02:39:12;;;;;;;7.28;5.22;;;-0.60;99.90;;;;;;4799711;29;20058;-69
2023/01/03 02:41:46;;;;;;;9.90;6.05;;;-0.60;99.90;;;;;;4783438;30;20090;-70
2023/01/03 02:44:22;;;;;;;6.57;5.53;;;-0.60;99.90;;;;;;4783569;30;20816;-70
2023/01/03 02:46:55;;;;;;;11.98;5.90;;;-0.60;99.90;;;;;;4787714;29;20562;-72
2023/01/03 02:49:30;;;;;;;6.55;5.55;;;-0.60;99.90;;;;;;4784377;29;20067;-71
2023/01/03 02:52:02;;;;;;;12.75;5.43;;;-0.60;99.90;;;;;;4784485;29;20059;-70
2023/01/03 02:54:37;;;;;;;9.40;5.75;;;-0.60;99.90;;;;;;4785514;29;20063;-71
2023/01/03 02:57:10;;;;;;;7.47;5.63;;;-0.60;99.90;;;;;;4786206;30;20051;-71
2023/01/03 02:59:45;;;;;;;11.40;5.53;;;-0.60;99.90;;;;;;4784120;29;20132;-71
2023/01/03 03:02:17;;;;;;;9.15;5.45;;;-0.50;99.90;;;;;;4785579;29;20067;-71
2023/01/03 03:04:47;;;;;;;7.32;4.97;;;-0.50;99.90;;;;;;4786180;29;20109;-71
2023/01/03 03:07:21;;;;;;;12.25;5.30;;;-0.50;99.90;;;;;;4768661;30;20600;-71
2023/01/03 03:15:24;;;;;;;10.35;5.15;;;-0.60;99.90;;;;;;4787192;30;20062;-70
2023/01/03 03:17:58;;;;;;;6.88;4.43;;;-0.60;99.90;;;;;;4783773;29;20051;-70
2023/01/03 03:26:10;;;;;;;9.27;4.93;;;-0.70;99.90;;;;;;4772844;30;20130;-71
2023/01/03 03:28:43;;;;;;;7.15;4.50;;;-0.70;99.90;;;;;;4784470;29;20055;-70
2023/01/03 03:31:14;;;;;;;6.20;4.07;;;-0.70;99.90;;;;;;4784374;29;20062;-70
2023/01/03 03:33:52;;;;;;;6.63;4.65;;;-0.70;99.90;;;;;;4785680;29;20059;-70
2023/01/03 03:36:27;;;;;;;6.82;4.65;;;-0.80;99.90;;;;;;4782950;29;20051;-70
2023/01/03 03:38:55;;;;;;;7.65;4.32;;;-0.80;99.90;;;;;;4783952;29;20602;-70
2023/01/03 03:47:26;;;;;;;6.72;4.20;;;-0.60;99.90;;;;;;4778772;30;20062;-70
2023/01/03 03:50:05;;;;;;;8.13;4.50;;;-0.70;99.90;;;;;;4781211;30;20482;-71
2023/01/03 03:52:34;;;;;;;5.13;4.15;;;-0.70;99.90;;;;;;4787552;29;20059;-70
2023/01/03 03:55:07;;;;;;;9.27;4.30;;;-0.70;99.90;;;;;;4783751;29;20145;-70
2023/01/03 03:57:39;;;;;;;7.40;5.10;;;-0.70;99.90;;;;;;4784138;29;20047;-72
2023/01/03 04:00:12;;;;;;;7.35;4.30;;;-0.70;99.90;;;;;;4784445;29;20429;-71
2023/01/03 04:02:46;;;;;;;6.30;4.18;;;-0.70;99.90;;;;;;4784622;29;20067;-71
2023/01/03 04:05:19;;;;;;;8.48;4.28;;;-0.70;99.90;;;;;;4784896;30;20535;-71
2023/01/03 04:07:47;;;;;;;4.93;3.70;;;-0.70;99.90;;;;;;4785324;29;20501;-71
2023/01/03 04:10:19;;;;;;;8.32;4.63;;;-0.70;99.90;;;;;;4785978;29;20059;-71
2023/01/03 04:12:47;;;;;;;6.53;4.32;;;-0.70;99.90;;;;;;4783426;29;20051;-70
2023/01/03 04:15:15;;;;;;;5.10;4.00;;;-0.70;99.90;;;;;;4782906;29;20055;-71
2023/01/03 04:17:43;;;;;;;4.70;3.80;;;-0.70;99.90;;;;;;4782875;29;20059;-71
2023/01/03 04:20:12;;;;;;;9.60;4.03;;;-0.70;99.90;;;;;;4785856;29;20087;-70
2023/01/03 04:22:41;;;;;;;5.47;3.65;;;-0.70;99.90;;;;;;4780633;29;20047;-70
2023/01/03 04:25:09;;;;;;;7.47;4.25;;;-0.60;99.90;;;;;;4783031;29;20055;-70
2023/01/03 04:27:37;;;;;;;5.63;4.05;;;-0.60;99.90;;;;;;4787726;29;20059;-70
2023/01/03 04:30:06;;;;;;;7.13;3.97;;;-0.60;99.90;;;;;;4781458;29;20425;-70
2023/01/03 04:32:33;;;;;;;10.35;4.50;;;-0.60;99.90;;;;;;4779868;30;20059;-71
2023/01/03 04:35:01;;;;;;;6.88;4.28;;;-0.60;99.90;;;;;;4780213;30;20079;-71
2023/01/03 04:37:29;;;;;;;8.02;4.40;;;-0.60;99.90;;;;;;4794426;29;20059;-71
2023/01/03 04:39:58;;;;;;;7.93;4.07;;;-0.60;99.90;;;;;;4779216;30;20406;-71
2023/01/03 04:45:11;;;;;;;9.20;4.68;;;-0.60;99.90;;;;;;4783414;30;20059;-71
2023/01/03 04:47:39;;;;;;;5.78;3.63;;;-0.60;99.90;;;;;;4781801;30;20489;-71
2023/01/03 04:50:08;;;;;;;4.45;3.92;;;-0.60;99.90;;;;;;4774020;30;20039;-70
2023/01/03 04:52:35;;;;;;;5.32;4.25;;;-0.60;99.90;;;;;;4783471;29;20055;-71
2023/01/03 04:55:05;;;;;;;9.02;5.13;;;-0.60;99.90;;;;;;4783150;29;20059;-71
2023/01/03 04:57:33;;;;;;;6.70;4.32;;;-0.60;99.90;;;;;;4785109;29;20066;-71
2023/01/03 05:00:00;;;;;;;6.20;4.43;;;-0.50;99.90;;;;;;4783029;29;20078;-71
2023/01/03 05:02:28;;;;;;;6.30;4.35;;;-0.50;99.90;;;;;;4782172;29;20544;-71
2023/01/03 05:04:55;;;;;;;5.65;4.38;;;-0.50;99.90;;;;;;4781462;30;20059;-71
2023/01/03 05:07:23;;;;;;;6.93;4.40;;;-0.50;99.90;;;;;;4782410;30;20055;-70
2023/01/03 05:09:50;;;;;;;8.48;4.72;;;-0.50;99.90;;;;;;4783415;29;20566;-71
2023/01/03 05:12:19;;;;;;;5.45;4.80;;;-0.50;99.90;;;;;;4784203;29;20580;-70
2023/01/03 05:14:47;;;;;;;11.27;4.70;;;-0.50;99.90;;;;;;4783769;29;20094;-70
2023/01/03 05:17:14;;;;;;;9.68;5.15;;;-0.50;99.90;;;;;;4783113;30;20055;-71
2023/01/03 05:27:57;;;;;;;9.20;6.03;;;-0.40;99.90;;;;;;4782098;30;20137;-71
2023/01/03 05:30:25;;;;;;;8.35;5.82;;;-0.40;99.90;;;;;;4783505;29;20604;-70
2023/01/03 05:32:52;;;;;;;10.43;6.35;;;-0.50;99.90;;;;;;4783556;29;20532;-71
2023/01/03 05:35:20;;;;;;;10.38;5.95;;;-0.50;99.90;;;;;;4785026;29;20086;-71
2023/01/03 05:37:47;;;;;;;8.95;6.10;;;-0.50;99.90;;;;;;4780270;30;20138;-71
2023/01/03 05:40:15;;;;;;;10.50;6.28;;;-0.50;99.90;;;;;;4781421;30;20059;-69
2023/01/03 05:42:42;;;;;;;9.50;6.20;;;-0.40;99.90;;;;;;4783650;29;20497;-71
2023/01/03 05:45:11;;;;;;;9.75;6.10;;;-0.40;99.90;;;;;;4785046;29;20047;-70
2023/01/03 05:47:39;;;;;;;10.70;6.85;;;-0.40;99.90;;;;;;4780374;29;20053;-70
2023/01/03 05:50:08;;;;;;;10.38;6.72;;;-0.50;99.90;;;;;;4782727;29;20083;-71
2023/01/03 05:52:35;;;;;;;9.40;6.45;;;-0.50;99.90;;;;;;4783784;29;20112;-70
2023/01/03 05:55:04;;;;;;;9.57;6.45;;;-0.50;99.90;;;;;;4781706;29;20190;-71
2023/01/03 05:57:31;;;;;;;11.85;6.80;;;-0.50;99.90;;;;;;4772040;29;20138;-70
2023/01/03 05:59:59;;;;;;;9.88;5.95;;;-0.50;99.90;;;;;;4782651;29;20059;-71
2023/01/03 06:02:28;;;;;;;9.02;5.80;;;-0.50;99.90;;;;;;4783475;29;20515;-71
2023/01/03 06:04:56;;;;;;;10.15;6.10;;;-0.50;99.90;;;;;;4783251;30;20433;-72
2023/01/03 06:07:23;;;;;;;9.00;6.00;;;-0.50;99.90;;;;;;4783400;29;20177;-71
2023/01/03 06:09:51;;;;;;;8.80;5.93;;;-0.50;99.90;;;;;;4781326;29;20063;-71
2023/01/03 06:12:18;;;;;;;8.50;5.88;;;-0.50;99.90;;;;;;4783179;30;20044;-71
2023/01/03 06:14:46;;;;;;;7.97;5.38;;;-0.40;99.90;;;;;;4783424;29;20539;-71
2023/01/03 06:19:59;;;;;;;8.98;4.85;;;-0.40;99.90;;;;;;4781594;29;20063;-70
2023/01/03 06:22:27;;;;;;;8.30;4.95;;;-0.40;99.90;;;;;;4781013;30;20047;-67
2023/01/03 06:24:54;;;;;;;10.43;5.68;;;-0.40;99.90;;;;;;4778161;29;20597;-71
2023/01/03 06:27:21;;;;;;;10.88;5.90;;;-0.40;99.90;;;;;;4782182;30;20059;-70
2023/01/03 06:29:49;;;;;;;7.55;5.45;;;-0.30;99.90;;;;;;4783583;29;20066;-72
2023/01/03 06:32:17;;;;;;;8.52;5.45;;;-0.30;99.90;;;;;;4783463;29;20051;-70
2023/01/03 06:34:45;;;;;;;6.15;4.80;;;-0.30;99.90;;;;;;4779973;30;20252;-70
2023/01/03 06:37:13;;;;;;;7.47;4.90;;;-0.30;99.90;;;;;;4779686;29;20051;-77
2023/01/03 06:39:41;;;;;;;8.63;5.32;;;-0.30;99.90;;;;;;4775662;29;20398;-67
2023/01/03 06:53:14;;;;;;;10.85;6.38;;;-0.40;99.90;;;;;;4783194;29;20059;-67
2023/01/03 06:55:45;;;;;;;12.60;6.55;;;-0.40;99.90;;;;;;4779417;29;20095;-68
2023/01/03 06:58:13;;;;;;;10.15;6.65;;;-0.40;99.90;;;;;;4768297;30;20063;-69
2023/01/03 07:00:44;;;;;;;10.73;6.47;;;-0.40;99.90;;;;;;4771934;30;20051;-67
2023/01/03 07:03:11;;;;;;;8.77;5.80;;;-0.40;99.90;;;;;;4786830;29;20149;-67
2023/01/03 07:05:40;;;;;;;13.27;6.60;;;-0.40;99.90;;;;;;4786251;29;20143;-67
2023/01/03 07:08:07;;;;;;;17.30;7.15;;;-0.40;99.90;;;;;;4788502;29;20054;-71
2023/01/03 07:10:36;;;;;;;14.80;7.28;;;-0.40;99.90;;;;;;4784959;30;20055;-72
2023/01/03 07:15:49;;;;;;;11.60;7.00;;;-0.50;99.90;;;;;;4787925;29;20059;-75
2023/01/03 07:18:16;;;;;;;16.67;8.60;;;-0.50;99.90;;;;;;4774419;29;20143;-74
2023/01/03 07:20:46;;;;;;;13.52;7.75;;;-0.50;99.90;;;;;;4789048;29;20593;-75
2023/01/03 07:23:14;;;;;;;13.57;8.20;;;-0.50;99.90;;;;;;4767679;30;20175;-70
2023/01/03 07:25:44;;;;;;;15.02;7.68;;;-0.40;99.90;;;;;;4766545;30;20077;-70
2023/01/03 07:28:13;;;;;;;17.00;8.52;;;-0.40;99.90;;;;;;4768568;30;20514;-69
2023/01/03 07:30:47;;;;;;;15.13;7.72;;;-0.40;99.90;;;;;;4783487;29;20060;-74
2023/01/03 07:33:17;;;;;;;19.15;8.70;;;-0.40;99.90;;;;;;4773681;30;20131;-75
2023/01/03 07:35:45;;;;;;;15.82;8.40;;;-0.50;99.90;;;;;;4773510;30;20059;-75
2023/01/03 07:38:14;;;;;;;15.38;8.30;;;-0.50;99.90;;;;;;4778972;29;20096;-75
2023/01/03 07:40:43;;;;;;;13.15;7.70;;;-0.40;99.90;;;;;;4776821;29;20088;-76
2023/01/03 07:45:57;;;;;;;17.98;8.70;;;-0.40;99.90;;;;;;4776163;30;20075;-75
2023/01/03 07:48:25;;;;;;;16.30;8.38;;;-0.40;99.90;;;;;;4775392;30;20047;-70
2023/01/03 07:50:57;;;;;;;15.00;8.52;;;-0.40;99.90;;;;;;4775064;30;20535;-70
2023/01/03 07:53:26;;;;;;;14.43;8.23;;;-0.40;99.90;;;;;;4778655;30;20047;-69
2023/01/03 07:56:00;;;;;;;16.25;7.47;;;-0.40;99.90;;;;;;4775799;30;20162;-69
2023/01/03 07:58:28;;;;;;;16.90;8.55;;;-0.40;99.90;;;;;;4774387;30;20068;-70
2023/01/03 08:00:55;;;;;;;15.85;7.28;;;-0.40;99.90;;;;;;4772302;29;20055;-69
2023/01/03 08:03:23;;;;;;;12.70;7.57;;;-0.40;99.90;;;;;;4777540;29;20055;-69
2023/01/03 08:05:50;;;;;;;14.45;8.43;;;-0.30;99.90;;;;;;4775191;30;20051;-68
2023/01/03 08:08:18;;;;;;;15.43;7.72;;;-0.30;99.90;;;;;;4775909;29;20047;-69
2023/01/03 08:13:32;;;;;;;11.57;6.38;;;-0.30;99.90;;;;;;4795333;29;20054;-69
2023/01/03 08:15:59;;;;;;;10.50;5.90;;;-0.30;99.90;;;;;;4790163;29;20055;-68
2023/01/03 08:18:28;;;;;;;9.98;6.07;;;-0.20;99.90;;;;;;4792269;29;20042;-68
2023/01/03 08:20:56;;;;;;;10.25;6.20;;;-0.30;99.90;;;;;;4796967;29;20071;-68
2023/01/03 08:23:24;;;;;;;11.07;6.70;;;-0.20;99.90;;;;;;4795929;29;20108;-69
2023/01/03 08:25:52;;;;;;;8.00;5.15;;;-0.20;99.90;;;;;;4793265;29;20051;-68
2023/01/03 08:28:20;;;;;;;10.93;6.13;;;-0.30;99.90;;;;;;4792254;29;20542;-69
2023/01/03 08:30:50;;;;;;;9.25;4.85;;;-0.30;99.90;;;;;;4792182;29;20055;-70
2023/01/03 08:33:19;;;;;;;9.30;4.45;;;-0.20;99.90;;;;;;4794737;29;20111;-68
2023/01/03 08:35:54;;;;;;;8.93;4.50;;;-0.20;99.90;;;;;;4789458;29;20054;-69
2023/01/03 08:38:27;;;;;;;9.80;4.72;;;-0.20;99.90;;;;;;4787905;29;20103;-69
2023/01/03 08:40:56;;;;;;;6.53;4.70;;;-0.20;99.90;;;;;;4788516;29;20178;-71
2023/01/03 08:43:25;;;;;;;7.63;4.32;;;-0.20;99.90;;;;;;4785281;29;20055;-68
2023/01/03 08:45:54;;;;;;;9.45;4.30;;;-0.20;99.90;;;;;;4792396;29;20158;-70
2023/01/03 08:48:23;;;;;;;6.43;4.40;;;-0.20;99.90;;;;;;4788818;29;20074;-68
2023/01/03 08:50:51;;;;;;;7.00;4.25;;;-0.20;99.90;;;;;;4782280;29;20052;-68
2023/01/03 08:53:19;;;;;;;8.45;4.13;;;-0.20;99.90;;;;;;4779941;29;20074;-68
2023/01/03 08:55:46;;;;;;;5.47;3.78;;;-0.20;99.90;;;;;;4789627;29;20065;-69
2023/01/03 08:58:14;;;;;;;8.93;4.32;;;-0.20;99.90;;;;;;4785139;29;20119;-69
2023/01/03 09:00:42;;;;;;;10.13;3.92;;;-0.20;99.90;;;;;;4785955;29;20153;-68
2023/01/03 09:03:11;;;;;;;9.93;5.35;;;-0.20;99.90;;;;;;4781878;29;20043;-73
2023/01/03 09:05:39;;;;;;;9.75;4.38;;;-0.20;99.90;;;;;;4783200;29;20096;-72
2023/01/03 09:08:07;;;;;;;8.73;4.97;;;-0.20;99.90;;;;;;4789877;29;20488;-72
2023/01/03 09:10:35;;;;;;;12.82;5.30;;;-0.20;99.90;;;;;;4790693;29;20528;-72
2023/01/03 09:13:04;;;;;;;7.30;4.78;;;-0.10;99.90;;;;;;4776174;29;20059;-72
2023/01/03 09:15:32;;;;;;;9.98;4.60;;;-0.10;99.90;;;;;;4785749;29;20540;-69
2023/01/03 09:17:59;;;;;;;8.43;4.80;;;-0.10;99.90;;;;;;4786702;29;20127;-69
2023/01/03 09:20:28;;;;;;;11.50;5.03;;;-0.10;99.90;;;;;;4803777;29;20082;-69
2023/01/03 09:22:55;;;;;;;11.45;5.28;;;-0.10;99.90;;;;;;4791197;29;20108;-67
2023/01/03 09:25:23;;;;;;;13.23;5.90;;;-0.10;99.90;;;;;;4790652;29;20488;-68
2023/01/03 09:27:51;;;;;;;10.13;5.03;;;-0.10;99.90;;;;;;4792040;29;20057;-70
2023/01/03 09:30:19;;;;;;;9.57;5.07;;;-0.20;99.90;;;;;;4785879;29;20058;-71
2023/01/03 09:32:51;;;;;;;8.00;5.20;;;-0.10;99.90;;;;;;4790622;29;20047;-72
2023/01/03 09:35:18;;;;;;;8.52;5.25;;;-0.20;99.90;;;;;;4782048;29;20084;-71
2023/01/03 09:37:49;;;;;;;10.10;5.25;;;-0.20;99.90;;;;;;4785482;29;20138;-71
2023/01/03 09:40:16;;;;;;;10.82;4.88;;;-0.10;99.90;;;;;;4784923;29;20057;-69
2023/01/03 09:45:33;;;;;;;7.32;4.68;;;-0.20;99.90;;;;;;4789749;29;20050;-68
2023/01/03 09:48:02;;;;;;;9.93;5.80;;;-0.10;99.90;;;;;;4789697;29;20421;-68
2023/01/03 09:50:33;;;;;;;10.50;5.22;;;-0.20;99.90;;;;;;4780395;29;20382;-69
2023/01/03 10:05:16;;;;;;;11.18;5.18;;;-0.10;99.90;;;;;;4767669;30;20097;-69
2023/01/03 10:08:13;;;;;;;10.75;5.38;;;-0.10;99.90;;;;;;4722312;30;20060;-74
2023/01/03 10:10:48;;;;;;;11.70;5.85;;;-0.10;99.90;;;;;;4780515;30;20075;-72
2023/01/03 10:13:28;;;;;;;7.13;4.90;;;-0.10;99.90;;;;;;4767341;29;20061;-74
2023/01/03 10:16:07;;;;;;;8.77;5.53;;;-0.10;99.90;;;;;;4767150;30;20552;-73
2023/01/03 10:19:05;;;;;;;7.38;5.63;;;-0.10;99.90;;;;;;4779223;29;20051;-70
2023/01/03 10:21:45;;;;;;;11.18;6.10;;;-0.10;99.90;;;;;;4765362;30;20051;-73
2023/01/03 10:24:22;;;;;;;10.20;6.95;;;0.00;99.90;;;;;;4775289;30;20055;-73
2023/01/03 10:27:07;;;;;;;12.13;6.53;;;0.00;99.90;;;;;;4783405;29;20059;-73
2023/01/03 10:29:35;;;;;;;13.25;6.22;;;-0.10;99.90;;;;;;4768641;30;20112;-73
2023/01/03 10:32:18;;;;;;;15.38;6.90;;;0.00;99.90;;;;;;4781941;29;20152;-73
2023/01/03 10:35:01;;;;;;;;;;;0.00;99.90;;;;;;4775778;29;20469;-72
2023/01/03 10:37:30;;;;;;;;;;;0.00;99.90;;;;;;4786679;29;19929;-73
2023/01/03 10:40:05;;;;;;;11.73;5.20;;;0.10;99.90;;;;;;4785185;29;19937;-72
2023/01/03 10:42:35;;;;;;;13.32;7.03;;;0.10;99.90;;;;;;4781830;29;20066;-73
2023/01/03 10:45:09;;;;;;;11.38;6.05;;;0.10;99.90;;;;;;4790527;29;20052;-72
2023/01/03 10:47:37;;;;;;;13.75;7.05;;;0.20;99.90;;;;;;4783011;30;20160;-72
2023/01/03 10:50:07;;;;;;;7.80;5.10;;;0.20;99.90;;;;;;4781387;29;20051;-73
2023/01/03 10:52:39;;;;;;;9.32;5.72;;;0.20;99.90;;;;;;4781670;29;20501;-73
2023/01/03 10:55:16;;;;;;;8.52;4.97;;;0.30;99.90;;;;;;4778180;30;20150;-73
2023/01/03 10:57:47;;;;;;;10.32;5.93;;;0.30;99.90;;;;;;4782462;29;20067;-72
2023/01/03 11:00:28;;;;;;;13.30;5.43;;;0.40;99.90;;;;;;4786461;30;20158;-74
2023/01/03 11:03:08;;;;;;;16.88;7.00;;;0.40;99.90;;;;;;4778151;29;20502;-72
2023/01/03 11:05:37;;;;;;;10.13;5.40;;;0.40;99.90;;;;;;4776312;30;20136;-75
2023/01/03 11:08:14;;;;;;;9.23;5.43;;;0.40;99.90;;;;;;4778674;29;20104;-74
2023/01/03 11:10:54;;;;;;;9.40;5.30;;;0.50;99.90;;;;;;4784276;30;20376;-73
2023/01/03 11:13:33;;;;;;;10.40;4.50;;;0.50;99.90;;;;;;4778398;29;20066;-75
2023/01/03 11:16:03;;;;;;;10.40;4.72;;;0.50;99.90;;;;;;4775922;30;20134;-73
2023/01/03 11:18:31;;;;;;;11.63;4.38;;;0.50;99.90;;;;;;4778708;30;20062;-73
2023/01/03 11:21:16;;;;;;;9.55;4.55;;;0.50;99.90;;;;;;4780303;29;20055;-73
2023/01/03 11:24:08;;;;;;;7.32;4.18;;;0.50;99.90;;;;;;4778677;29;20062;-73
2023/01/03 11:26:50;;;;;;;7.68;4.13;;;0.50;99.90;;;;;;4777203;30;20532;-72
2023/01/03 11:29:51;;;;;;;9.98;4.68;;;0.50;99.90;;;;;;4778847;30;20051;-74
2023/01/03 11:32:28;;;;;;;7.53;3.83;;;0.50;99.90;;;;;;4780177;29;20460;-73
2023/01/03 11:35:18;;;;;;;7.40;4.60;;;0.50;99.90;;;;;;4779217;29;20059;-73
2023/01/03 11:37:57;;;;;;;8.60;4.07;;;0.40;99.90;;;;;;4774258;30;20435;-72
2023/01/03 11:40:36;;;;;;;12.07;5.03;;;0.40;99.90;;;;;;4776465;30;20050;-72
2023/01/03 11:43:25;;;;;;;6.85;3.40;;;0.50;99.90;;;;;;4785540;29;20122;-75
2023/01/03 11:46:24;;;;;;;8.95;4.78;;;0.50;99.90;;;;;;4793090;29;20152;-76
2023/01/03 11:49:21;;;;;;;11.52;4.43;;;0.50;99.90;;;;;;4790017;29;20127;-75
2023/01/03 11:52:03;;;;;;;9.20;3.63;;;0.50;99.90;;;;;;4782597;29;20667;-74
2023/01/03 11:55:06;;;;;;;10.65;4.13;;;0.50;99.90;;;;;;4790665;29;20888;-74
2023/01/03 11:57:47;;;;;;;6.40;3.78;;;0.50;99.90;;;;;;4793423;29;20082;-75
2023/01/03 12:00:27;;;;;;;9.05;3.85;;;0.60;99.90;;;;;;4789267;29;20057;-76
2023/01/03 12:03:09;;;;;;;9.65;3.63;;;0.60;99.90;;;;;;4777733;29;20137;-76
2023/01/03 12:05:49;;;;;;;14.55;3.65;;;0.60;99.90;;;;;;4793079;29;20089;-76
2023/01/03 12:08:45;;;;;;;8.63;3.78;;;0.60;99.90;;;;;;4794608;29;20057;-74
2023/01/03 12:11:34;;;;;;;6.75;3.58;;;0.60;99.90;;;;;;4792015;29;20082;-76
2023/01/03 12:14:09;;;;;;;7.75;3.55;;;0.60;99.90;;;;;;4803472;29;20051;-75
2023/01/03 12:16:42;;;;;;;8.30;3.30;;;0.60;99.90;;;;;;4797246;29;21633;-76
2023/01/03 12:19:26;;;;;;;6.13;3.33;;;0.60;99.90;;;;;;4789536;29;20063;-77
2023/01/03 12:22:00;;;;;;;8.77;3.30;;;0.50;99.90;;;;;;4788933;29;20071;-76
2023/01/03 12:24:34;;;;;;;7.72;3.63;;;0.50;99.90;;;;;;4793687;29;20482;-75
2023/01/03 12:27:10;;;;;;;8.40;3.95;;;0.50;99.90;;;;;;4794391;29;20047;-76
2023/01/03 12:29:51;;;;;;;5.72;3.25;;;0.50;99.90;;;;;;4798247;29;20513;-75
2023/01/03 12:32:26;;;;;;;12.52;4.22;;;0.50;99.90;;;;;;4791422;29;20097;-75
2023/01/03 12:35:15;;;;;;;10.88;3.63;;;0.50;99.90;;;;;;4796466;29;20149;-72
2023/01/03 12:37:46;;;;;;;10.55;3.33;;;0.50;99.90;;;;;;4796848;29;20092;-71
2023/01/03 12:40:25;;;;;;;7.68;3.38;;;0.40;99.90;;;;;;4789183;29;20057;-70
2023/01/03 12:43:05;;;;;;;7.47;3.28;;;0.40;99.90;;;;;;4792924;29;20063;-71
2023/01/03 12:45:43;;;;;;;8.85;3.38;;;0.30;99.90;;;;;;4788956;29;20123;-72
2023/01/03 12:48:51;;;;;;;6.53;3.30;;;0.30;99.90;;;;;;4788719;29;20142;-71
2023/01/03 12:51:21;;;;;;;9.02;3.10;;;0.30;99.90;;;;;;4792493;29;20050;-72
2023/01/03 12:54:01;;;;;;;7.80;3.25;;;0.30;99.90;;;;;;4791434;29;20059;-71
2023/01/03 12:57:09;;;;;;;6.60;2.95;;;0.30;99.90;;;;;;4782696;29;20500;-71
2023/01/03 13:00:10;;;;;;;4.30;2.78;;;0.30;99.90;;;;;;4787588;29;20121;-70
2023/01/03 13:02:48;;;;;;;6.63;2.60;;;0.30;99.90;;;;;;4787713;29;20118;-71
2023/01/03 13:05:26;;;;;;;3.92;2.83;;;0.30;99.90;;;;;;4803376;29;20051;-69
2023/01/03 13:08:06;;;;;;;6.57;3.72;;;0.30;99.90;;;;;;4802155;29;20073;-69
2023/01/03 13:10:40;;;;;;;6.50;2.53;;;0.20;99.90;;;;;;4788090;29;20066;-69
2023/01/03 13:13:13;;;;;;;6.10;2.30;;;0.20;99.90;;;;;;4779474;29;20598;-76
2023/01/03 13:15:41;;;;;;;7.00;2.85;;;0.20;99.90;;;;;;4794116;29;20061;-75
2023/01/03 13:18:34;;;;;;;8.40;2.85;;;0.20;99.90;;;;;;4784687;29;20055;-76
2023/01/03 13:21:56;;;;;;;5.63;2.72;;;0.20;99.90;;;;;;4787546;29;20147;-75
2023/01/03 13:24:44;;;;;;;5.55;2.55;;;0.10;99.90;;;;;;4758593;29;63748;-73
2023/01/03 13:27:37;;;;;;;7.78;2.20;;;0.10;99.90;;;;;;4763527;29;20066;-75
2023/01/03 13:30:21;;;;;;;4.05;2.20;;;0.10;99.90;;;;;;4782794;29;20047;-73
2023/01/03 13:32:53;;;;;;;9.95;4.35;;;0.10;99.90;;;;;;4777553;29;20051;-75
2023/01/03 13:35:32;;;;;;;5.50;2.70;;;0.10;99.90;;;;;;4778100;29;20110;-74
2023/01/03 13:38:19;;;;;;;10.25;3.85;;;0.10;99.90;;;;;;4779787;29;20347;-74
2023/01/03 13:40:49;;;;;;;4.43;2.20;;;0.10;99.90;;;;;;4779519;29;20059;-73
2023/01/03 13:43:19;;;;;;;62.38;28.60;;;0.00;99.90;;;;;;4781774;29;20305;-76
2023/01/03 13:46:20;;;;;;;5.20;2.80;;;0.10;99.90;;;;;;4786272;29;20142;-74
2023/01/03 13:48:57;;;;;;;2.72;1.48;;;0.10;99.90;;;;;;4779489;29;20070;-74
2023/01/03 13:51:50;;;;;;;6.18;2.08;;;0.10;99.90;;;;;;4782366;29;20079;-74
2023/01/03 13:55:01;;;;;;;6.07;1.63;;;0.10;99.90;;;;;;4779908;29;20055;-74
2023/01/03 13:57:39;;;;;;;5.03;1.95;;;0.10;99.90;;;;;;4727319;30;20057;-74
2023/01/03 14:00:22;;;;;;;4.13;1.52;;;0.10;99.90;;;;;;4727378;30;20205;-73
2023/01/03 14:03:36;;;;;;;4.45;2.00;;;0.10;99.90;;;;;;4763269;29;20099;-72
2023/01/03 14:06:55;;;;;;;3.92;1.52;;;0.10;99.90;;;;;;4769992;30;20067;-73
2023/01/03 14:09:52;;;;;;;7.22;1.98;;;0.00;99.90;;;;;;4780537;30;20051;-76
2023/01/03 14:13:07;;;;;;;5.13;1.95;;;0.00;99.90;;;;;;4783842;30;20154;-72
2023/01/03 14:15:35;;;;;;;9.68;2.10;;;0.00;99.90;;;;;;4784644;30;20062;-77
2023/01/03 14:18:18;;;;;;;10.15;3.78;;;0.00;99.90;;;;;;4781679;29;20055;-73
2023/01/03 14:20:49;;;;;;;5.18;1.83;;;0.00;99.90;;;;;;4787754;29;20066;-74
2023/01/03 14:23:22;;;;;;;9.68;3.13;;;0.10;99.90;;;;;;4788335;29;20523;-74
2023/01/03 14:25:51;;;;;;;6.30;2.00;;;0.10;99.90;;;;;;4783027;29;20070;-75
2023/01/03 14:28:24;;;;;;;12.60;3.03;;;0.20;99.90;;;;;;4789901;29;20043;-75
2023/01/03 14:31:04;;;;;;;;;;;0.30;99.90;;;;;;4786197;29;20051;-75
2023/01/03 14:33:36;;;;;;;14.18;5.43;;;0.30;99.90;;;;;;4783963;29;20351;-75